sensor_id;sensor_type;location;lat;lon;timestamp;P1;durP1;ratioP1;P2;durP2;ratioP2
77146;SDS011;66121;52.584;9.694;2024-03-17T00:00:20;8.00;;;2.50;;
77146;SDS011;66121;52.584;9.694;2024-03-17T00:02:46;7.43;;;2.15;;
77146;SDS011;66121;52.584;9.694;2024-03-17T00:05:12;6.90;;;2.30;;
77146;SDS011;66121;52.584;9.694;2024-03-17T00:07:38;4.95;;;2.40;;
77146;SDS011;66121;52.584;9.694;2024-03-17T00:10:03;8.98;;;2.10;;
77146;SDS011;66121;52.584;9.694;2024-03-17T00:12:29;10.77;;;2.30;;
77146;SDS011;66121;52.584;9.694;2024-03-17T00:14:54;9.70;;;2.28;;
77146;SDS011;66121;52.584;9.694;2024-03-17T00:17:20;5.72;;;2.22;;
77146;SDS011;66121;52.584;9.694;2024-03-17T00:19:46;6.85;;;2.75;;
77146;SDS011;66121;52.584;9.694;2024-03-17T00:22:12;11.90;;;2.70;;
77146;SDS011;66121;52.584;9.694;2024-03-17T00:24:39;7.07;;;2.80;;
77146;SDS011;66121;52.584;9.694;2024-03-17T00:27:05;10.60;;;2.22;;
77146;SDS011;66121;52.584;9.694;2024-03-17T00:29:31;10.85;;;2.53;;
77146;SDS011;66121;52.584;9.694;2024-03-17T00:31:57;11.23;;;3.00;;
77146;SDS011;66121;52.584;9.694;2024-03-17T00:34:23;11.52;;;2.42;;
77146;SDS011;66121;52.584;9.694;2024-03-17T00:36:48;12.32;;;3.70;;
77146;SDS011;66121;52.584;9.694;2024-03-17T00:39:14;9.60;;;2.03;;
77146;SDS011;66121;52.584;9.694;2024-03-17T00:41:39;8.93;;;2.95;;
77146;SDS011;66121;52.584;9.694;2024-03-17T00:44:05;5.05;;;1.70;;
77146;SDS011;66121;52.584;9.694;2024-03-17T00:46:31;11.88;;;2.60;;
77146;SDS011;66121;52.584;9.694;2024-03-17T00:48:56;9.15;;;2.50;;
77146;SDS011;66121;52.584;9.694;2024-03-17T00:51:23;6.10;;;2.00;;
77146;SDS011;66121;52.584;9.694;2024-03-17T00:53:49;17.47;;;2.97;;
77146;SDS011;66121;52.584;9.694;2024-03-17T00:56:14;16.63;;;2.40;;
77146;SDS011;66121;52.584;9.694;2024-03-17T00:58:40;12.20;;;3.17;;
77146;SDS011;66121;52.584;9.694;2024-03-17T01:01:05;6.15;;;2.50;;
77146;SDS011;66121;52.584;9.694;2024-03-17T01:03:30;13.73;;;3.03;;
77146;SDS011;66121;52.584;9.694;2024-03-17T01:05:56;7.40;;;2.13;;
77146;SDS011;66121;52.584;9.694;2024-03-17T01:08:21;7.20;;;2.70;;
77146;SDS011;66121;52.584;9.694;2024-03-17T01:10:47;10.30;;;2.50;;
77146;SDS011;66121;52.584;9.694;2024-03-17T01:13:16;4.78;;;2.20;;
77146;SDS011;66121;52.584;9.694;2024-03-17T01:15:42;10.93;;;2.90;;
77146;SDS011;66121;52.584;9.694;2024-03-17T01:18:08;15.00;;;2.80;;
77146;SDS011;66121;52.584;9.694;2024-03-17T01:20:36;10.10;;;2.40;;
77146;SDS011;66121;52.584;9.694;2024-03-17T01:23:02;5.65;;;2.38;;
77146;SDS011;66121;52.584;9.694;2024-03-17T01:25:28;10.55;;;2.45;;
77146;SDS011;66121;52.584;9.694;2024-03-17T01:27:54;11.55;;;2.78;;
77146;SDS011;66121;52.584;9.694;2024-03-17T01:30:21;10.77;;;2.25;;
77146;SDS011;66121;52.584;9.694;2024-03-17T01:32:47;12.55;;;2.35;;
77146;SDS011;66121;52.584;9.694;2024-03-17T01:35:14;10.95;;;2.30;;
77146;SDS011;66121;52.584;9.694;2024-03-17T01:37:39;9.98;;;2.47;;
77146;SDS011;66121;52.584;9.694;2024-03-17T01:40:05;11.10;;;2.53;;
77146;SDS011;66121;52.584;9.694;2024-03-17T01:42:34;5.65;;;2.08;;
77146;SDS011;66121;52.584;9.694;2024-03-17T01:44:59;8.38;;;2.17;;
77146;SDS011;66121;52.584;9.694;2024-03-17T01:47:25;5.95;;;1.75;;
77146;SDS011;66121;52.584;9.694;2024-03-17T01:49:50;9.95;;;2.35;;
77146;SDS011;66121;52.584;9.694;2024-03-17T01:52:17;6.43;;;2.70;;
77146;SDS011;66121;52.584;9.694;2024-03-17T01:54:43;5.50;;;1.95;;
77146;SDS011;66121;52.584;9.694;2024-03-17T01:57:10;8.65;;;2.35;;
77146;SDS011;66121;52.584;9.694;2024-03-17T01:59:36;13.05;;;2.70;;
77146;SDS011;66121;52.584;9.694;2024-03-17T02:02:02;5.88;;;2.55;;
77146;SDS011;66121;52.584;9.694;2024-03-17T02:04:28;6.63;;;2.22;;
77146;SDS011;66121;52.584;9.694;2024-03-17T02:06:54;7.10;;;2.40;;
77146;SDS011;66121;52.584;9.694;2024-03-17T02:09:19;9.57;;;2.50;;
77146;SDS011;66121;52.584;9.694;2024-03-17T02:11:47;13.30;;;2.53;;
77146;SDS011;66121;52.584;9.694;2024-03-17T02:14:12;6.63;;;2.10;;
77146;SDS011;66121;52.584;9.694;2024-03-17T02:16:39;10.90;;;2.55;;
77146;SDS011;66121;52.584;9.694;2024-03-17T02:19:05;5.00;;;1.98;;
77146;SDS011;66121;52.584;9.694;2024-03-17T02:21:30;14.68;;;2.72;;
77146;SDS011;66121;52.584;9.694;2024-03-17T02:23:56;13.30;;;2.35;;
77146;SDS011;66121;52.584;9.694;2024-03-17T02:26:22;8.23;;;2.35;;
77146;SDS011;66121;52.584;9.694;2024-03-17T02:28:48;8.10;;;2.08;;
77146;SDS011;66121;52.584;9.694;2024-03-17T02:31:15;7.78;;;2.63;;
77146;SDS011;66121;52.584;9.694;2024-03-17T02:33:42;8.15;;;2.05;;
77146;SDS011;66121;52.584;9.694;2024-03-17T02:36:08;11.00;;;2.58;;
77146;SDS011;66121;52.584;9.694;2024-03-17T02:38:36;9.35;;;2.40;;
77146;SDS011;66121;52.584;9.694;2024-03-17T02:41:21;10.48;;;2.40;;
77146;SDS011;66121;52.584;9.694;2024-03-17T02:43:46;12.05;;;2.60;;
77146;SDS011;66121;52.584;9.694;2024-03-17T02:46:12;8.50;;;2.45;;
77146;SDS011;66121;52.584;9.694;2024-03-17T02:48:39;6.22;;;2.50;;
77146;SDS011;66121;52.584;9.694;2024-03-17T02:51:11;10.90;;;2.60;;
77146;SDS011;66121;52.584;9.694;2024-03-17T02:53:39;10.05;;;2.70;;
77146;SDS011;66121;52.584;9.694;2024-03-17T02:56:06;7.97;;;1.95;;
77146;SDS011;66121;52.584;9.694;2024-03-17T02:58:33;9.35;;;2.25;;
77146;SDS011;66121;52.584;9.694;2024-03-17T03:01:01;5.05;;;2.28;;
77146;SDS011;66121;52.584;9.694;2024-03-17T03:03:27;6.50;;;2.28;;
77146;SDS011;66121;52.584;9.694;2024-03-17T03:05:53;10.07;;;3.50;;
77146;SDS011;66121;52.584;9.694;2024-03-17T03:08:18;9.82;;;2.60;;
77146;SDS011;66121;52.584;9.694;2024-03-17T03:10:46;11.80;;;2.55;;
77146;SDS011;66121;52.584;9.694;2024-03-17T03:13:12;6.53;;;2.28;;
77146;SDS011;66121;52.584;9.694;2024-03-17T03:15:37;10.95;;;4.28;;
77146;SDS011;66121;52.584;9.694;2024-03-17T03:18:03;7.65;;;3.08;;
77146;SDS011;66121;52.584;9.694;2024-03-17T03:20:28;12.68;;;3.53;;
77146;SDS011;66121;52.584;9.694;2024-03-17T03:22:53;6.30;;;2.38;;
77146;SDS011;66121;52.584;9.694;2024-03-17T03:25:19;7.05;;;2.42;;
77146;SDS011;66121;52.584;9.694;2024-03-17T03:27:44;10.88;;;2.40;;
77146;SDS011;66121;52.584;9.694;2024-03-17T03:30:10;11.13;;;3.05;;
77146;SDS011;66121;52.584;9.694;2024-03-17T03:32:36;10.27;;;3.20;;
77146;SDS011;66121;52.584;9.694;2024-03-17T03:35:03;13.93;;;3.70;;
77146;SDS011;66121;52.584;9.694;2024-03-17T03:37:32;11.88;;;3.47;;
77146;SDS011;66121;52.584;9.694;2024-03-17T03:39:57;9.20;;;3.53;;
77146;SDS011;66121;52.584;9.694;2024-03-17T03:42:23;12.95;;;4.43;;
77146;SDS011;66121;52.584;9.694;2024-03-17T03:44:49;17.73;;;4.55;;
77146;SDS011;66121;52.584;9.694;2024-03-17T03:47:14;16.48;;;4.03;;
77146;SDS011;66121;52.584;9.694;2024-03-17T03:49:40;11.57;;;3.47;;
77146;SDS011;66121;52.584;9.694;2024-03-17T03:52:05;15.60;;;3.83;;
77146;SDS011;66121;52.584;9.694;2024-03-17T03:54:31;10.27;;;3.00;;
77146;SDS011;66121;52.584;9.694;2024-03-17T03:56:56;12.00;;;3.40;;
77146;SDS011;66121;52.584;9.694;2024-03-17T03:59:21;8.27;;;3.20;;
77146;SDS011;66121;52.584;9.694;2024-03-17T04:01:47;12.77;;;3.78;;
77146;SDS011;66121;52.584;9.694;2024-03-17T04:04:15;15.05;;;3.88;;
77146;SDS011;66121;52.584;9.694;2024-03-17T04:06:41;9.77;;;3.00;;
77146;SDS011;66121;52.584;9.694;2024-03-17T04:09:06;22.42;;;3.60;;
77146;SDS011;66121;52.584;9.694;2024-03-17T04:11:34;12.60;;;3.23;;
77146;SDS011;66121;52.584;9.694;2024-03-17T04:14:01;9.05;;;2.97;;
77146;SDS011;66121;52.584;9.694;2024-03-17T04:16:26;6.80;;;2.67;;
77146;SDS011;66121;52.584;9.694;2024-03-17T04:18:53;16.67;;;3.28;;
77146;SDS011;66121;52.584;9.694;2024-03-17T04:21:18;15.83;;;2.90;;
77146;SDS011;66121;52.584;9.694;2024-03-17T04:23:46;13.23;;;3.03;;
77146;SDS011;66121;52.584;9.694;2024-03-17T04:26:11;6.43;;;2.57;;
77146;SDS011;66121;52.584;9.694;2024-03-17T04:28:38;8.52;;;2.63;;
77146;SDS011;66121;52.584;9.694;2024-03-17T04:31:06;6.13;;;2.63;;
77146;SDS011;66121;52.584;9.694;2024-03-17T04:33:32;10.02;;;2.80;;
77146;SDS011;66121;52.584;9.694;2024-03-17T04:35:58;9.65;;;2.55;;
77146;SDS011;66121;52.584;9.694;2024-03-17T04:38:23;9.10;;;3.15;;
77146;SDS011;66121;52.584;9.694;2024-03-17T04:40:49;6.38;;;2.10;;
77146;SDS011;66121;52.584;9.694;2024-03-17T04:43:15;8.63;;;2.63;;
77146;SDS011;66121;52.584;9.694;2024-03-17T04:45:40;6.13;;;2.15;;
77146;SDS011;66121;52.584;9.694;2024-03-17T04:48:06;5.17;;;2.20;;
77146;SDS011;66121;52.584;9.694;2024-03-17T04:50:32;12.38;;;2.80;;
77146;SDS011;66121;52.584;9.694;2024-03-17T04:52:58;4.45;;;2.50;;
77146;SDS011;66121;52.584;9.694;2024-03-17T04:55:24;6.57;;;2.58;;
77146;SDS011;66121;52.584;9.694;2024-03-17T04:57:49;9.10;;;2.80;;
77146;SDS011;66121;52.584;9.694;2024-03-17T05:00:15;6.87;;;3.23;;
77146;SDS011;66121;52.584;9.694;2024-03-17T05:02:43;8.35;;;2.72;;
77146;SDS011;66121;52.584;9.694;2024-03-17T05:05:08;5.05;;;2.47;;
77146;SDS011;66121;52.584;9.694;2024-03-17T05:07:35;7.80;;;2.33;;
77146;SDS011;66121;52.584;9.694;2024-03-17T05:10:01;5.95;;;2.63;;
77146;SDS011;66121;52.584;9.694;2024-03-17T05:12:26;5.30;;;2.30;;
77146;SDS011;66121;52.584;9.694;2024-03-17T05:14:52;7.82;;;3.00;;
77146;SDS011;66121;52.584;9.694;2024-03-17T05:17:17;4.70;;;2.50;;
77146;SDS011;66121;52.584;9.694;2024-03-17T05:19:42;7.22;;;2.38;;
77146;SDS011;66121;52.584;9.694;2024-03-17T05:22:08;15.33;;;3.17;;
77146;SDS011;66121;52.584;9.694;2024-03-17T05:24:33;7.15;;;2.53;;
77146;SDS011;66121;52.584;9.694;2024-03-17T05:26:58;9.23;;;2.67;;
77146;SDS011;66121;52.584;9.694;2024-03-17T05:29:24;4.77;;;2.63;;
77146;SDS011;66121;52.584;9.694;2024-03-17T05:31:49;7.53;;;2.78;;
77146;SDS011;66121;52.584;9.694;2024-03-17T05:34:15;8.27;;;2.65;;
77146;SDS011;66121;52.584;9.694;2024-03-17T05:36:40;6.43;;;2.33;;
77146;SDS011;66121;52.584;9.694;2024-03-17T05:39:06;9.07;;;2.63;;
77146;SDS011;66121;52.584;9.694;2024-03-17T05:41:31;8.43;;;2.38;;
77146;SDS011;66121;52.584;9.694;2024-03-17T05:43:57;8.45;;;3.22;;
77146;SDS011;66121;52.584;9.694;2024-03-17T05:46:28;5.35;;;2.50;;
77146;SDS011;66121;52.584;9.694;2024-03-17T05:48:54;8.93;;;2.35;;
77146;SDS011;66121;52.584;9.694;2024-03-17T05:51:19;8.35;;;2.53;;
77146;SDS011;66121;52.584;9.694;2024-03-17T05:53:45;7.78;;;2.97;;
77146;SDS011;66121;52.584;9.694;2024-03-17T05:56:10;7.72;;;2.80;;
77146;SDS011;66121;52.584;9.694;2024-03-17T05:58:37;8.75;;;2.80;;
77146;SDS011;66121;52.584;9.694;2024-03-17T06:01:05;7.05;;;2.45;;
77146;SDS011;66121;52.584;9.694;2024-03-17T06:03:34;9.25;;;2.78;;
77146;SDS011;66121;52.584;9.694;2024-03-17T06:06:03;10.25;;;2.60;;
77146;SDS011;66121;52.584;9.694;2024-03-17T06:08:29;8.32;;;2.47;;
77146;SDS011;66121;52.584;9.694;2024-03-17T06:10:55;11.20;;;3.00;;
77146;SDS011;66121;52.584;9.694;2024-03-17T06:13:25;13.93;;;3.30;;
77146;SDS011;66121;52.584;9.694;2024-03-17T06:15:51;8.18;;;3.15;;
77146;SDS011;66121;52.584;9.694;2024-03-17T06:18:16;6.20;;;2.83;;
77146;SDS011;66121;52.584;9.694;2024-03-17T06:20:46;9.35;;;2.95;;
77146;SDS011;66121;52.584;9.694;2024-03-17T06:23:12;9.52;;;2.83;;
77146;SDS011;66121;52.584;9.694;2024-03-17T06:28:04;5.77;;;2.60;;
77146;SDS011;66121;52.584;9.694;2024-03-17T06:30:29;11.20;;;3.22;;
77146;SDS011;66121;52.584;9.694;2024-03-17T06:32:55;6.83;;;2.63;;
77146;SDS011;66121;52.584;9.694;2024-03-17T06:35:20;10.77;;;2.70;;
77146;SDS011;66121;52.584;9.694;2024-03-17T06:37:50;17.67;;;6.70;;
77146;SDS011;66121;52.584;9.694;2024-03-17T06:40:17;16.25;;;4.97;;
77146;SDS011;66121;52.584;9.694;2024-03-17T06:42:43;14.52;;;4.53;;
77146;SDS011;66121;52.584;9.694;2024-03-17T06:45:08;12.73;;;3.75;;
77146;SDS011;66121;52.584;9.694;2024-03-17T06:47:37;12.85;;;3.67;;
77146;SDS011;66121;52.584;9.694;2024-03-17T06:50:03;9.00;;;3.25;;
77146;SDS011;66121;52.584;9.694;2024-03-17T06:52:30;13.27;;;3.83;;
77146;SDS011;66121;52.584;9.694;2024-03-17T06:54:56;10.27;;;3.45;;
77146;SDS011;66121;52.584;9.694;2024-03-17T06:57:23;7.93;;;3.15;;
77146;SDS011;66121;52.584;9.694;2024-03-17T06:59:48;8.75;;;3.30;;
77146;SDS011;66121;52.584;9.694;2024-03-17T07:02:13;7.87;;;3.67;;
77146;SDS011;66121;52.584;9.694;2024-03-17T07:04:42;5.90;;;3.33;;
77146;SDS011;66121;52.584;9.694;2024-03-17T07:07:08;7.38;;;3.25;;
77146;SDS011;66121;52.584;9.694;2024-03-17T07:09:34;15.25;;;4.45;;
77146;SDS011;66121;52.584;9.694;2024-03-17T07:11:59;9.95;;;3.65;;
77146;SDS011;66121;52.584;9.694;2024-03-17T07:14:24;11.93;;;4.30;;
77146;SDS011;66121;52.584;9.694;2024-03-17T07:16:51;11.73;;;4.15;;
77146;SDS011;66121;52.584;9.694;2024-03-17T07:19:16;13.68;;;4.85;;
77146;SDS011;66121;52.584;9.694;2024-03-17T07:21:42;9.17;;;3.77;;
77146;SDS011;66121;52.584;9.694;2024-03-17T07:24:07;12.07;;;5.00;;
77146;SDS011;66121;52.584;9.694;2024-03-17T07:26:32;14.27;;;6.93;;
77146;SDS011;66121;52.584;9.694;2024-03-17T07:28:58;13.40;;;5.93;;
77146;SDS011;66121;52.584;9.694;2024-03-17T07:31:24;10.98;;;5.55;;
77146;SDS011;66121;52.584;9.694;2024-03-17T07:33:49;14.45;;;5.70;;
77146;SDS011;66121;52.584;9.694;2024-03-17T07:36:14;16.27;;;5.40;;
77146;SDS011;66121;52.584;9.694;2024-03-17T07:38:40;11.65;;;4.95;;
77146;SDS011;66121;52.584;9.694;2024-03-17T07:41:06;14.23;;;5.63;;
77146;SDS011;66121;52.584;9.694;2024-03-17T07:43:36;15.75;;;5.70;;
77146;SDS011;66121;52.584;9.694;2024-03-17T07:46:09;13.52;;;5.35;;
77146;SDS011;66121;52.584;9.694;2024-03-17T07:48:37;11.98;;;6.03;;
77146;SDS011;66121;52.584;9.694;2024-03-17T07:51:08;15.40;;;6.55;;
77146;SDS011;66121;52.584;9.694;2024-03-17T07:53:39;15.02;;;6.38;;
77146;SDS011;66121;52.584;9.694;2024-03-17T07:56:10;21.33;;;6.97;;
77146;SDS011;66121;52.584;9.694;2024-03-17T07:58:37;17.15;;;7.97;;
77146;SDS011;66121;52.584;9.694;2024-03-17T08:01:04;13.10;;;7.25;;
77146;SDS011;66121;52.584;9.694;2024-03-17T08:03:32;20.10;;;8.07;;
77146;SDS011;66121;52.584;9.694;2024-03-17T08:05:59;22.48;;;8.80;;
77146;SDS011;66121;52.584;9.694;2024-03-17T08:08:25;12.13;;;6.45;;
77146;SDS011;66121;52.584;9.694;2024-03-17T08:10:50;16.42;;;5.30;;
77146;SDS011;66121;52.584;9.694;2024-03-17T08:13:16;11.30;;;4.53;;
77146;SDS011;66121;52.584;9.694;2024-03-17T08:15:43;11.02;;;3.97;;
77146;SDS011;66121;52.584;9.694;2024-03-17T08:18:09;19.33;;;5.55;;
77146;SDS011;66121;52.584;9.694;2024-03-17T08:20:41;11.15;;;4.65;;
77146;SDS011;66121;52.584;9.694;2024-03-17T08:23:08;15.68;;;5.30;;
77146;SDS011;66121;52.584;9.694;2024-03-17T08:25:35;15.38;;;5.03;;
77146;SDS011;66121;52.584;9.694;2024-03-17T08:28:01;19.85;;;5.72;;
77146;SDS011;66121;52.584;9.694;2024-03-17T08:30:27;17.55;;;3.80;;
77146;SDS011;66121;52.584;9.694;2024-03-17T08:32:53;15.07;;;3.95;;
77146;SDS011;66121;52.584;9.694;2024-03-17T08:35:19;12.30;;;3.45;;
77146;SDS011;66121;52.584;9.694;2024-03-17T08:37:44;11.07;;;2.90;;
77146;SDS011;66121;52.584;9.694;2024-03-17T08:40:10;14.50;;;3.25;;
77146;SDS011;66121;52.584;9.694;2024-03-17T08:42:36;11.35;;;3.58;;
77146;SDS011;66121;52.584;9.694;2024-03-17T08:45:01;16.20;;;3.83;;
77146;SDS011;66121;52.584;9.694;2024-03-17T08:47:27;18.98;;;6.20;;
77146;SDS011;66121;52.584;9.694;2024-03-17T08:49:53;15.40;;;7.32;;
77146;SDS011;66121;52.584;9.694;2024-03-17T08:52:19;25.73;;;10.48;;
77146;SDS011;66121;52.584;9.694;2024-03-17T08:54:46;13.65;;;3.63;;
77146;SDS011;66121;52.584;9.694;2024-03-17T08:57:12;14.38;;;2.97;;
77146;SDS011;66121;52.584;9.694;2024-03-17T08:59:37;9.60;;;3.55;;
77146;SDS011;66121;52.584;9.694;2024-03-17T09:02:03;10.82;;;2.90;;
77146;SDS011;66121;52.584;9.694;2024-03-17T09:04:28;12.43;;;3.47;;
77146;SDS011;66121;52.584;9.694;2024-03-17T09:06:54;8.63;;;3.80;;
77146;SDS011;66121;52.584;9.694;2024-03-17T09:09:21;7.88;;;3.95;;
77146;SDS011;66121;52.584;9.694;2024-03-17T09:11:47;9.45;;;2.40;;
77146;SDS011;66121;52.584;9.694;2024-03-17T09:14:12;11.32;;;3.38;;
77146;SDS011;66121;52.584;9.694;2024-03-17T09:16:37;11.30;;;2.47;;
77146;SDS011;66121;52.584;9.694;2024-03-17T09:19:03;10.95;;;4.25;;
77146;SDS011;66121;52.584;9.694;2024-03-17T09:21:28;10.30;;;3.10;;
77146;SDS011;66121;52.584;9.694;2024-03-17T09:23:53;6.03;;;2.10;;
77146;SDS011;66121;52.584;9.694;2024-03-17T09:26:19;12.48;;;3.75;;
77146;SDS011;66121;52.584;9.694;2024-03-17T09:28:44;10.07;;;2.20;;
77146;SDS011;66121;52.584;9.694;2024-03-17T09:31:10;7.57;;;2.05;;
77146;SDS011;66121;52.584;9.694;2024-03-17T09:33:36;10.55;;;2.47;;
77146;SDS011;66121;52.584;9.694;2024-03-17T09:36:02;6.82;;;2.08;;
77146;SDS011;66121;52.584;9.694;2024-03-17T09:38:30;6.88;;;2.50;;
77146;SDS011;66121;52.584;9.694;2024-03-17T09:40:56;13.45;;;1.83;;
77146;SDS011;66121;52.584;9.694;2024-03-17T09:43:23;6.75;;;2.00;;
77146;SDS011;66121;52.584;9.694;2024-03-17T09:45:50;5.70;;;1.70;;
77146;SDS011;66121;52.584;9.694;2024-03-17T09:48:20;4.53;;;1.90;;
77146;SDS011;66121;52.584;9.694;2024-03-17T09:50:52;6.43;;;1.40;;
77146;SDS011;66121;52.584;9.694;2024-03-17T09:53:26;5.22;;;1.80;;
77146;SDS011;66121;52.584;9.694;2024-03-17T09:55:56;6.53;;;2.10;;
77146;SDS011;66121;52.584;9.694;2024-03-17T09:58:23;3.78;;;1.30;;
77146;SDS011;66121;52.584;9.694;2024-03-17T10:00:49;7.00;;;2.08;;
77146;SDS011;66121;52.584;9.694;2024-03-17T10:06:24;5.93;;;2.25;;
77146;SDS011;66121;52.584;9.694;2024-03-17T10:08:53;5.68;;;2.08;;
77146;SDS011;66121;52.584;9.694;2024-03-17T10:11:21;9.15;;;2.85;;
77146;SDS011;66121;52.584;9.694;2024-03-17T10:13:58;11.82;;;2.63;;
77146;SDS011;66121;52.584;9.694;2024-03-17T10:16:25;5.63;;;2.00;;
77146;SDS011;66121;52.584;9.694;2024-03-17T10:19:11;9.07;;;2.05;;
77146;SDS011;66121;52.584;9.694;2024-03-17T10:21:47;10.93;;;2.22;;
77146;SDS011;66121;52.584;9.694;2024-03-17T10:31:56;9.82;;;2.28;;
77146;SDS011;66121;52.584;9.694;2024-03-17T10:34:29;12.27;;;3.17;;
77146;SDS011;66121;52.584;9.694;2024-03-17T10:37:08;7.15;;;2.20;;
77146;SDS011;66121;52.584;9.694;2024-03-17T10:39:36;7.85;;;2.10;;
77146;SDS011;66121;52.584;9.694;2024-03-17T10:42:03;13.02;;;2.67;;
77146;SDS011;66121;52.584;9.694;2024-03-17T10:44:30;6.78;;;2.25;;
77146;SDS011;66121;52.584;9.694;2024-03-17T10:47:02;8.40;;;1.92;;
77146;SDS011;66121;52.584;9.694;2024-03-17T10:49:34;7.45;;;1.95;;
77146;SDS011;66121;52.584;9.694;2024-03-17T10:52:01;5.72;;;2.45;;
77146;SDS011;66121;52.584;9.694;2024-03-17T10:54:29;6.53;;;2.20;;
77146;SDS011;66121;52.584;9.694;2024-03-17T10:56:56;10.93;;;2.38;;
77146;SDS011;66121;52.584;9.694;2024-03-17T10:59:44;8.85;;;2.83;;
77146;SDS011;66121;52.584;9.694;2024-03-17T11:04:54;4.68;;;1.88;;
77146;SDS011;66121;52.584;9.694;2024-03-17T11:07:21;11.20;;;2.30;;
77146;SDS011;66121;52.584;9.694;2024-03-17T11:09:47;8.07;;;2.30;;
77146;SDS011;66121;52.584;9.694;2024-03-17T11:17:54;5.82;;;1.95;;
77146;SDS011;66121;52.584;9.694;2024-03-17T11:20:35;6.18;;;2.40;;
77146;SDS011;66121;52.584;9.694;2024-03-17T11:23:02;10.98;;;4.47;;
77146;SDS011;66121;52.584;9.694;2024-03-17T11:38:58;7.90;;;2.42;;
77146;SDS011;66121;52.584;9.694;2024-03-17T11:46:38;10.63;;;3.10;;
77146;SDS011;66121;52.584;9.694;2024-03-17T11:49:04;8.70;;;3.63;;
77146;SDS011;66121;52.584;9.694;2024-03-17T11:51:29;5.90;;;2.75;;
77146;SDS011;66121;52.584;9.694;2024-03-17T11:53:58;10.52;;;2.63;;
77146;SDS011;66121;52.584;9.694;2024-03-17T11:56:24;7.93;;;2.65;;
77146;SDS011;66121;52.584;9.694;2024-03-17T11:59:03;7.25;;;3.15;;
77146;SDS011;66121;52.584;9.694;2024-03-17T12:01:29;9.02;;;3.53;;
77146;SDS011;66121;52.584;9.694;2024-03-17T12:03:55;6.75;;;3.25;;
77146;SDS011;66121;52.584;9.694;2024-03-17T12:06:22;10.13;;;3.10;;
77146;SDS011;66121;52.584;9.694;2024-03-17T12:08:48;8.90;;;3.83;;
77146;SDS011;66121;52.584;9.694;2024-03-17T12:11:19;9.00;;;3.30;;
77146;SDS011;66121;52.584;9.694;2024-03-17T12:16:12;8.20;;;3.07;;
77146;SDS011;66121;52.584;9.694;2024-03-17T12:18:39;11.63;;;2.90;;
77146;SDS011;66121;52.584;9.694;2024-03-17T12:21:11;7.50;;;3.40;;
77146;SDS011;66121;52.584;9.694;2024-03-17T12:23:39;10.65;;;3.60;;
77146;SDS011;66121;52.584;9.694;2024-03-17T12:26:05;7.55;;;2.85;;
77146;SDS011;66121;52.584;9.694;2024-03-17T12:28:40;9.43;;;4.55;;
77146;SDS011;66121;52.584;9.694;2024-03-17T12:31:05;8.37;;;3.70;;
77146;SDS011;66121;52.584;9.694;2024-03-17T12:33:31;12.07;;;3.92;;
77146;SDS011;66121;52.584;9.694;2024-03-17T12:35:57;8.27;;;3.65;;
77146;SDS011;66121;52.584;9.694;2024-03-17T12:38:26;6.95;;;3.05;;
77146;SDS011;66121;52.584;9.694;2024-03-17T12:40:51;8.90;;;4.00;;
77146;SDS011;66121;52.584;9.694;2024-03-17T12:43:17;8.52;;;4.15;;
77146;SDS011;66121;52.584;9.694;2024-03-17T12:45:42;12.85;;;6.00;;
77146;SDS011;66121;52.584;9.694;2024-03-17T12:48:12;8.80;;;4.05;;
77146;SDS011;66121;52.584;9.694;2024-03-17T12:50:44;7.88;;;2.95;;
77146;SDS011;66121;52.584;9.694;2024-03-17T12:53:13;6.45;;;3.58;;
77146;SDS011;66121;52.584;9.694;2024-03-17T12:55:52;9.77;;;3.15;;
77146;SDS011;66121;52.584;9.694;2024-03-17T12:58:37;10.23;;;3.78;;
77146;SDS011;66121;52.584;9.694;2024-03-17T13:01:21;8.95;;;3.28;;
77146;SDS011;66121;52.584;9.694;2024-03-17T13:03:46;10.65;;;3.65;;
77146;SDS011;66121;52.584;9.694;2024-03-17T13:06:20;10.70;;;3.53;;
77146;SDS011;66121;52.584;9.694;2024-03-17T13:08:49;8.93;;;3.95;;
77146;SDS011;66121;52.584;9.694;2024-03-17T13:11:14;8.00;;;4.03;;
77146;SDS011;66121;52.584;9.694;2024-03-17T13:13:40;9.27;;;3.80;;
77146;SDS011;66121;52.584;9.694;2024-03-17T13:16:05;8.95;;;3.85;;
77146;SDS011;66121;52.584;9.694;2024-03-17T13:18:32;7.35;;;3.30;;
77146;SDS011;66121;52.584;9.694;2024-03-17T13:20:57;7.90;;;3.55;;
77146;SDS011;66121;52.584;9.694;2024-03-17T13:23:24;8.25;;;2.90;;
77146;SDS011;66121;52.584;9.694;2024-03-17T13:25:49;7.50;;;3.10;;
77146;SDS011;66121;52.584;9.694;2024-03-17T13:28:16;12.07;;;3.20;;
77146;SDS011;66121;52.584;9.694;2024-03-17T13:30:41;6.53;;;2.85;;
77146;SDS011;66121;52.584;9.694;2024-03-17T13:33:08;6.85;;;3.28;;
77146;SDS011;66121;52.584;9.694;2024-03-17T13:35:33;7.65;;;3.40;;
77146;SDS011;66121;52.584;9.694;2024-03-17T13:38:00;6.30;;;3.25;;
77146;SDS011;66121;52.584;9.694;2024-03-17T13:40:27;7.95;;;3.13;;
77146;SDS011;66121;52.584;9.694;2024-03-17T13:42:54;8.77;;;3.25;;
77146;SDS011;66121;52.584;9.694;2024-03-17T13:45:21;10.20;;;3.33;;
77146;SDS011;66121;52.584;9.694;2024-03-17T13:47:52;9.13;;;3.88;;
77146;SDS011;66121;52.584;9.694;2024-03-17T13:50:20;7.72;;;3.47;;
77146;SDS011;66121;52.584;9.694;2024-03-17T13:52:46;8.52;;;3.05;;
77146;SDS011;66121;52.584;9.694;2024-03-17T13:55:15;13.38;;;3.38;;
77146;SDS011;66121;52.584;9.694;2024-03-17T13:57:43;10.00;;;3.50;;
77146;SDS011;66121;52.584;9.694;2024-03-17T14:00:10;6.60;;;3.80;;
77146;SDS011;66121;52.584;9.694;2024-03-17T14:02:45;6.40;;;3.08;;
77146;SDS011;66121;52.584;9.694;2024-03-17T14:05:15;6.95;;;3.80;;
77146;SDS011;66121;52.584;9.694;2024-03-17T14:07:42;10.25;;;3.60;;
77146;SDS011;66121;52.584;9.694;2024-03-17T14:10:08;5.68;;;3.35;;
77146;SDS011;66121;52.584;9.694;2024-03-17T14:12:35;9.18;;;3.50;;
77146;SDS011;66121;52.584;9.694;2024-03-17T14:15:01;8.75;;;3.60;;
77146;SDS011;66121;52.584;9.694;2024-03-17T14:17:30;7.25;;;3.42;;
77146;SDS011;66121;52.584;9.694;2024-03-17T14:19:55;6.03;;;3.28;;
77146;SDS011;66121;52.584;9.694;2024-03-17T14:22:20;11.07;;;4.72;;
77146;SDS011;66121;52.584;9.694;2024-03-17T14:24:46;7.72;;;3.63;;
77146;SDS011;66121;52.584;9.694;2024-03-17T14:27:12;8.23;;;3.65;;
77146;SDS011;66121;52.584;9.694;2024-03-17T14:29:38;10.80;;;3.80;;
77146;SDS011;66121;52.584;9.694;2024-03-17T14:32:03;9.50;;;3.80;;
77146;SDS011;66121;52.584;9.694;2024-03-17T14:34:29;10.25;;;4.35;;
77146;SDS011;66121;52.584;9.694;2024-03-17T14:37:00;8.02;;;4.32;;
77146;SDS011;66121;52.584;9.694;2024-03-17T14:39:26;10.30;;;3.67;;
77146;SDS011;66121;52.584;9.694;2024-03-17T14:41:53;10.15;;;4.10;;
77146;SDS011;66121;52.584;9.694;2024-03-17T14:44:19;10.63;;;3.75;;
77146;SDS011;66121;52.584;9.694;2024-03-17T14:46:44;9.40;;;3.90;;
77146;SDS011;66121;52.584;9.694;2024-03-17T14:49:10;11.73;;;4.53;;
77146;SDS011;66121;52.584;9.694;2024-03-17T14:51:35;12.27;;;3.80;;
77146;SDS011;66121;52.584;9.694;2024-03-17T14:54:00;10.82;;;4.05;;
77146;SDS011;66121;52.584;9.694;2024-03-17T14:56:25;8.38;;;4.30;;
77146;SDS011;66121;52.584;9.694;2024-03-17T14:58:51;10.35;;;4.30;;
77146;SDS011;66121;52.584;9.694;2024-03-17T15:01:16;10.57;;;4.07;;
77146;SDS011;66121;52.584;9.694;2024-03-17T15:03:41;9.40;;;4.35;;
77146;SDS011;66121;52.584;9.694;2024-03-17T15:06:12;9.93;;;3.85;;
77146;SDS011;66121;52.584;9.694;2024-03-17T15:08:38;16.90;;;5.30;;
77146;SDS011;66121;52.584;9.694;2024-03-17T15:11:03;10.18;;;4.68;;
77146;SDS011;66121;52.584;9.694;2024-03-17T15:13:29;13.63;;;6.05;;
77146;SDS011;66121;52.584;9.694;2024-03-17T15:15:54;13.83;;;5.87;;
77146;SDS011;66121;52.584;9.694;2024-03-17T15:18:23;7.72;;;4.72;;
77146;SDS011;66121;52.584;9.694;2024-03-17T15:20:52;19.20;;;11.30;;